Time;durP1;ratioP1;P1;durP2;ratioP2;P2;SDS_P1;SDS_P2;PMS_P1;PMS_P2;Temp;Humidity;BMP_temperature;BMP_pressure;BME280_temperature;BME280_humidity;BME280_pressure;Samples;Min_cycle;Max_cycle;Signal;HPM_P1;HPM_P2
2023/12/10 00:01:48;;;;;;;93.47;44.97;;;;;;;;;;5589666;31;34463;-70
2023/12/10 00:04:51;;;;;;;95.62;44.67;;;;;;;;;;5589647;31;34281;-70
2023/12/10 00:07:54;;;;;;;110.60;47.88;;;;;;;;;;5588709;31;35126;-70
2023/12/10 00:10:56;;;;;;;108.30;47.50;;;;;;;;;;5589725;31;34968;-70
2023/12/10 00:14:01;;;;;;;116.12;49.90;;;;;;;;;;5589569;31;35123;-70
2023/12/10 00:17:05;;;;;;;120.78;50.88;;;;;;;;;;5589456;31;34461;-70
2023/12/10 00:20:08;;;;;;;122.15;50.28;;;;;;;;;;5589343;31;34580;-70
2023/12/10 00:23:11;;;;;;;120.72;50.05;;;;;;;;;;5589636;31;34418;-70
2023/12/10 00:26:14;;;;;;;117.35;49.47;;;;;;;;;;5589206;31;34757;-70
2023/12/10 00:29:17;;;;;;;121.40;49.05;;;;;;;;;;5589656;31;35112;-70
2023/12/10 00:32:20;;;;;;;117.78;46.97;;;;;;;;;;5589359;31;34259;-70
2023/12/10 00:35:26;;;;;;;121.30;47.67;;;;;;;;;;5589333;31;34441;-70
2023/12/10 00:38:29;;;;;;;123.18;48.15;;;;;;;;;;5589278;31;34300;-70
2023/12/10 00:41:34;;;;;;;121.75;46.60;;;;;;;;;;5589303;31;34382;-71
2023/12/10 00:44:39;;;;;;;124.12;47.67;;;;;;;;;;5588475;31;34236;-70
2023/12/10 00:47:50;;;;;;;124.25;49.15;;;;;;;;;;5589095;31;34480;-69
2023/12/10 00:50:53;;;;;;;126.38;47.67;;;;;;;;;;5588741;31;34482;-69
2023/12/10 00:53:57;;;;;;;118.65;46.22;;;;;;;;;;5589094;31;35122;-70
2023/12/10 00:57:01;;;;;;;127.87;49.05;;;;;;;;;;5589056;31;34174;-70
2023/12/10 01:00:05;;;;;;;120.22;47.17;;;;;;;;;;5588946;31;34464;-70
2023/12/10 01:03:16;;;;;;;118.97;45.72;;;;;;;;;;5589478;31;34233;-70
2023/12/10 01:06:19;;;;;;;116.45;47.58;;;;;;;;;;5588820;31;34920;-70
2023/12/10 01:09:22;;;;;;;123.55;47.45;;;;;;;;;;5588981;31;34344;-70
2023/12/10 01:12:26;;;;;;;115.57;45.45;;;;;;;;;;5588283;31;34262;-69
2023/12/10 01:15:29;;;;;;;102.90;43.15;;;;;;;;;;5588857;31;34413;-70
2023/12/10 01:18:33;;;;;;;112.15;44.70;;;;;;;;;;5588920;31;34429;-69
2023/12/10 01:21:35;;;;;;;99.82;40.92;;;;;;;;;;5588745;31;34738;-69
2023/12/10 01:24:39;;;;;;;109.60;44.50;;;;;;;;;;5587993;31;34999;-71
2023/12/10 01:27:42;;;;;;;112.18;44.00;;;;;;;;;;5589162;31;35010;-69
2023/12/10 01:30:45;;;;;;;101.43;43.65;;;;;;;;;;5588801;31;34179;-70
2023/12/10 01:33:51;;;;;;;112.45;44.97;;;;;;;;;;5588680;31;35099;-69
2023/12/10 01:36:55;;;;;;;100.47;42.35;;;;;;;;;;5588666;31;35123;-70
2023/12/10 01:40:00;;;;;;;98.62;42.35;;;;;;;;;;5588678;31;34337;-70
2023/12/10 01:43:06;;;;;;;82.90;39.10;;;;;;;;;;5588108;31;33448;-70
2023/12/10 01:46:10;;;;;;;91.63;41.13;;;;;;;;;;5588683;31;34412;-70
2023/12/10 01:49:15;;;;;;;87.22;41.37;;;;;;;;;;5588677;31;34252;-70
2023/12/10 01:52:18;;;;;;;80.78;38.03;;;;;;;;;;5588805;31;34936;-70
2023/12/10 01:55:22;;;;;;;89.82;40.25;;;;;;;;;;5588550;31;34969;-70
2023/12/10 01:58:26;;;;;;;84.87;40.60;;;;;;;;;;5588479;31;34449;-70
2023/12/10 02:01:30;;;;;;;85.87;38.67;;;;;;;;;;5588582;31;35042;-70
2023/12/10 02:04:33;;;;;;;76.25;37.97;;;;;;;;;;5588344;31;34393;-70
2023/12/10 02:07:36;;;;;;;74.87;36.88;;;;;;;;;;5588438;31;35082;-70
2023/12/10 02:10:40;;;;;;;77.28;38.35;;;;;;;;;;5588841;31;34558;-70
2023/12/10 02:13:43;;;;;;;78.30;38.17;;;;;;;;;;5588501;31;35046;-70
2023/12/10 02:16:45;;;;;;;73.82;36.25;;;;;;;;;;5587604;31;34253;-70
2023/12/10 02:19:48;;;;;;;74.53;37.25;;;;;;;;;;5588380;31;35006;-70
2023/12/10 02:22:52;;;;;;;76.93;36.95;;;;;;;;;;5588272;31;34514;-70
2023/12/10 02:25:55;;;;;;;65.20;34.90;;;;;;;;;;5588321;31;35017;-71
2023/12/10 02:28:58;;;;;;;65.40;34.58;;;;;;;;;;5588371;31;34972;-70
2023/12/10 02:32:01;;;;;;;65.82;35.47;;;;;;;;;;5588277;31;35067;-70
2023/12/10 02:35:04;;;;;;;69.25;36.70;;;;;;;;;;5588263;31;34363;-70
2023/12/10 02:38:11;;;;;;;68.22;35.53;;;;;;;;;;5588311;31;35081;-70
2023/12/10 02:41:13;;;;;;;67.90;37.00;;;;;;;;;;5588340;31;34184;-70
2023/12/10 02:44:17;;;;;;;69.43;38.30;;;;;;;;;;5588133;31;34339;-70
2023/12/10 02:47:19;;;;;;;71.05;36.88;;;;;;;;;;5588047;31;34499;-70
2023/12/10 02:50:23;;;;;;;65.87;36.17;;;;;;;;;;5587634;31;34241;-71
2023/12/10 02:53:25;;;;;;;69.68;36.92;;;;;;;;;;5587116;31;34428;-71
2023/12/10 02:56:28;;;;;;;66.75;34.90;;;;;;;;;;5588126;31;35002;-70
2023/12/10 02:59:31;;;;;;;71.47;36.20;;;;;;;;;;5588463;31;35052;-70
2023/12/10 03:02:35;;;;;;;70.47;37.30;;;;;;;;;;5588010;31;35002;-70
2023/12/10 03:05:38;;;;;;;73.47;38.97;;;;;;;;;;5588075;31;35080;-70
2023/12/10 03:08:42;;;;;;;73.28;38.35;;;;;;;;;;5587865;31;34348;-70
2023/12/10 03:11:44;;;;;;;76.70;39.25;;;;;;;;;;5588132;31;34614;-70
2023/12/10 03:14:48;;;;;;;76.25;39.17;;;;;;;;;;5586914;31;34419;-69
2023/12/10 03:17:50;;;;;;;75.57;37.92;;;;;;;;;;5587844;31;34603;-70
2023/12/10 03:20:53;;;;;;;75.00;37.92;;;;;;;;;;5587571;31;34998;-70
2023/12/10 03:23:55;;;;;;;79.32;39.13;;;;;;;;;;5573674;31;35315;-71
2023/12/10 03:26:58;;;;;;;83.05;40.05;;;;;;;;;;5587614;31;33746;-70
2023/12/10 03:30:01;;;;;;;79.85;38.70;;;;;;;;;;5587516;31;34381;-70
2023/12/10 03:33:04;;;;;;;78.50;40.05;;;;;;;;;;5587310;31;35189;-70
2023/12/10 03:36:07;;;;;;;83.93;40.22;;;;;;;;;;5587380;31;34526;-70
2023/12/10 03:39:10;;;;;;;81.60;40.42;;;;;;;;;;5587264;31;35025;-70
2023/12/10 03:42:14;;;;;;;78.47;40.85;;;;;;;;;;5587328;31;34461;-70
2023/12/10 03:45:16;;;;;;;78.20;39.92;;;;;;;;;;5587440;31;35040;-70
2023/12/10 03:48:19;;;;;;;76.20;39.35;;;;;;;;;;5586973;31;34494;-70
2023/12/10 03:51:22;;;;;;;76.65;40.00;;;;;;;;;;5587374;31;34991;-70
2023/12/10 03:54:25;;;;;;;74.25;38.20;;;;;;;;;;5586877;31;35214;-69
2023/12/10 03:57:28;;;;;;;71.95;38.40;;;;;;;;;;5587205;31;35041;-69
2023/12/10 04:00:30;;;;;;;72.05;39.35;;;;;;;;;;5586890;31;35032;-69
2023/12/10 04:03:34;;;;;;;70.07;37.85;;;;;;;;;;5586802;31;34392;-70
2023/12/10 04:06:39;;;;;;;72.95;39.25;;;;;;;;;;5587190;31;32804;-69
2023/12/10 04:09:46;;;;;;;73.87;39.70;;;;;;;;;;5586823;31;35019;-70
2023/12/10 04:12:48;;;;;;;74.40;39.88;;;;;;;;;;5585995;31;35035;-69
2023/12/10 04:15:52;;;;;;;72.28;38.47;;;;;;;;;;5586642;31;34990;-69
2023/12/10 04:18:55;;;;;;;68.10;38.47;;;;;;;;;;5586716;31;33967;-70
2023/12/10 04:21:58;;;;;;;68.80;38.10;;;;;;;;;;5586620;31;34857;-70
2023/12/10 04:25:01;;;;;;;72.35;39.08;;;;;;;;;;5586445;31;34718;-70
2023/12/10 04:28:04;;;;;;;73.72;39.22;;;;;;;;;;5588254;31;34400;-70
2023/12/10 04:31:09;;;;;;;77.87;40.03;;;;;;;;;;5589420;31;33810;-70
2023/12/10 04:34:12;;;;;;;73.35;39.67;;;;;;;;;;5589623;31;34990;-71
2023/12/10 04:37:15;;;;;;;79.68;40.90;;;;;;;;;;5589346;31;34301;-70
2023/12/10 04:40:18;;;;;;;74.82;39.40;;;;;;;;;;5589685;31;34469;-71
2023/12/10 04:43:20;;;;;;;78.62;40.88;;;;;;;;;;5589636;31;34360;-71
2023/12/10 04:46:24;;;;;;;80.40;39.78;;;;;;;;;;5589225;31;35187;-71
2023/12/10 04:49:27;;;;;;;81.22;40.00;;;;;;;;;;5589186;31;34249;-72
2023/12/10 04:52:30;;;;;;;81.18;40.85;;;;;;;;;;5589104;31;34365;-72
2023/12/10 04:55:33;;;;;;;84.82;41.10;;;;;;;;;;5588958;31;35226;-73
2023/12/10 04:58:36;;;;;;;85.25;41.63;;;;;;;;;;5589192;31;34381;-73
2023/12/10 05:01:38;;;;;;;87.95;41.25;;;;;;;;;;5589195;31;34497;-74
2023/12/10 05:04:41;;;;;;;84.65;39.83;;;;;;;;;;5589225;31;34600;-75
2023/12/10 05:07:44;;;;;;;93.87;43.00;;;;;;;;;;5589171;31;34440;-75
2023/12/10 05:10:47;;;;;;;92.22;42.85;;;;;;;;;;5589270;31;34694;-75
2023/12/10 05:13:49;;;;;;;96.28;43.47;;;;;;;;;;5589339;31;34238;-75
2023/12/10 05:16:52;;;;;;;94.90;42.00;;;;;;;;;;5589201;31;35226;-74
2023/12/10 05:19:54;;;;;;;86.15;40.60;;;;;;;;;;5588995;31;34625;-75
2023/12/10 05:22:59;;;;;;;86.93;41.00;;;;;;;;;;5589000;31;35117;-76
2023/12/10 05:26:01;;;;;;;88.93;41.65;;;;;;;;;;5589040;31;34383;-76
2023/12/10 05:29:04;;;;;;;89.32;40.83;;;;;;;;;;5588932;31;33788;-76
2023/12/10 05:32:07;;;;;;;91.05;41.75;;;;;;;;;;5588960;31;34348;-76
2023/12/10 05:35:09;;;;;;;88.95;40.03;;;;;;;;;;5588891;31;34486;-75
2023/12/10 05:38:12;;;;;;;90.32;40.25;;;;;;;;;;5587723;31;34479;-75
2023/12/10 05:41:14;;;;;;;86.63;41.28;;;;;;;;;;5588660;31;34291;-74
2023/12/10 05:44:18;;;;;;;78.43;38.42;;;;;;;;;;5588818;31;34299;-74
2023/12/10 05:47:21;;;;;;;84.37;38.80;;;;;;;;;;5588825;31;34603;-75
2023/12/10 05:50:23;;;;;;;77.70;38.70;;;;;;;;;;5588639;31;34407;-75
2023/12/10 05:53:26;;;;;;;76.25;38.08;;;;;;;;;;5588683;31;34337;-76
2023/12/10 05:56:29;;;;;;;80.65;39.53;;;;;;;;;;5587856;31;35271;-76
2023/12/10 05:59:32;;;;;;;88.87;40.12;;;;;;;;;;5588671;31;35065;-75
2023/12/10 06:02:35;;;;;;;80.38;39.80;;;;;;;;;;5588741;31;33024;-75
2023/12/10 06:05:37;;;;;;;75.93;36.97;;;;;;;;;;5588630;31;34387;-75
2023/12/10 06:08:40;;;;;;;78.70;37.53;;;;;;;;;;5588514;31;34271;-75
2023/12/10 06:11:43;;;;;;;65.03;34.33;;;;;;;;;;5588539;31;35183;-75
2023/12/10 06:14:45;;;;;;;66.53;34.88;;;;;;;;;;5588363;31;35055;-75
2023/12/10 06:17:48;;;;;;;69.53;35.13;;;;;;;;;;5588844;31;34428;-76
2023/12/10 06:20:50;;;;;;;68.82;34.55;;;;;;;;;;5588981;31;34396;-74
2023/12/10 06:23:53;;;;;;;68.70;34.30;;;;;;;;;;5588476;31;34930;-76
2023/12/10 06:26:56;;;;;;;65.68;33.45;;;;;;;;;;5588320;31;34779;-75
2023/12/10 06:29:59;;;;;;;63.40;34.10;;;;;;;;;;5588419;31;34325;-75
2023/12/10 06:33:02;;;;;;;68.72;34.42;;;;;;;;;;5588374;31;34470;-77
2023/12/10 06:36:07;;;;;;;64.68;33.30;;;;;;;;;;5588336;31;35014;-75
2023/12/10 06:39:10;;;;;;;75.72;34.92;;;;;;;;;;5588406;31;34377;-75
2023/12/10 06:42:13;;;;;;;69.60;34.83;;;;;;;;;;5588459;31;35091;-75
2023/12/10 06:45:15;;;;;;;68.62;34.17;;;;;;;;;;5588326;31;34270;-75
2023/12/10 06:48:18;;;;;;;68.22;34.90;;;;;;;;;;5588190;31;34494;-75
2023/12/10 06:51:21;;;;;;;69.62;34.58;;;;;;;;;;5587268;31;34429;-75
2023/12/10 06:54:24;;;;;;;81.68;35.20;;;;;;;;;;5588500;31;35132;-76
2023/12/10 06:57:27;;;;;;;61.83;32.47;;;;;;;;;;5588445;31;34546;-76
2023/12/10 07:00:31;;;;;;;63.25;32.83;;;;;;;;;;5587544;31;35101;-76
2023/12/10 07:03:33;;;;;;;66.43;34.03;;;;;;;;;;5588180;31;34173;-76
2023/12/10 07:06:36;;;;;;;67.37;33.63;;;;;;;;;;5588181;31;34324;-77
2023/12/10 07:09:39;;;;;;;69.82;33.28;;;;;;;;;;5588157;31;34475;-76
2023/12/10 07:12:42;;;;;;;63.10;31.77;;;;;;;;;;5588284;31;34561;-76
2023/12/10 07:15:45;;;;;;;69.57;32.80;;;;;;;;;;5588126;31;34509;-76
2023/12/10 07:18:48;;;;;;;58.55;31.23;;;;;;;;;;5588091;31;35185;-76
2023/12/10 07:21:52;;;;;;;63.63;32.00;;;;;;;;;;5588109;31;34356;-76
2023/12/10 07:24:57;;;;;;;56.58;29.98;;;;;;;;;;5587894;31;34478;-76
2023/12/10 07:27:59;;;;;;;61.90;31.85;;;;;;;;;;5587837;31;34546;-77
2023/12/10 07:31:02;;;;;;;55.45;29.12;;;;;;;;;;5587968;31;34462;-77
2023/12/10 07:34:05;;;;;;;57.90;28.80;;;;;;;;;;5587721;31;34556;-76
2023/12/10 07:37:10;;;;;;;51.67;28.62;;;;;;;;;;5586447;31;34453;-76
2023/12/10 07:40:13;;;;;;;48.72;26.23;;;;;;;;;;5587939;31;34510;-76
2023/12/10 07:43:15;;;;;;;44.55;25.83;;;;;;;;;;5587634;31;35083;-76
2023/12/10 07:46:18;;;;;;;47.60;26.12;;;;;;;;;;5587653;31;34277;-76
2023/12/10 07:49:20;;;;;;;49.45;27.08;;;;;;;;;;5587498;31;34384;-75
2023/12/10 07:52:23;;;;;;;48.85;28.20;;;;;;;;;;5587584;31;34635;-75
2023/12/10 07:55:25;;;;;;;48.63;26.58;;;;;;;;;;5587460;31;34401;-75
2023/12/10 07:58:28;;;;;;;49.63;27.05;;;;;;;;;;5586876;31;34471;-74
2023/12/10 08:01:31;;;;;;;55.08;28.20;;;;;;;;;;5588482;31;35135;-74
2023/12/10 08:04:33;;;;;;;51.53;28.40;;;;;;;;;;5590059;31;35184;-73
2023/12/10 08:07:36;;;;;;;49.40;27.25;;;;;;;;;;5589980;31;34992;-73
2023/12/10 08:10:39;;;;;;;52.45;27.45;;;;;;;;;;5589780;31;35085;-72
2023/12/10 08:13:42;;;;;;;47.72;26.42;;;;;;;;;;5589979;31;34395;-72
2023/12/10 08:16:45;;;;;;;49.25;27.80;;;;;;;;;;5590076;31;35131;-72
2023/12/10 08:19:47;;;;;;;47.53;27.40;;;;;;;;;;5589853;31;34404;-72
2023/12/10 08:22:50;;;;;;;46.05;26.65;;;;;;;;;;5589403;31;34358;-72
2023/12/10 08:25:52;;;;;;;44.22;25.62;;;;;;;;;;5589721;31;34416;-71
2023/12/10 08:28:55;;;;;;;44.35;25.88;;;;;;;;;;5589666;31;34432;-71
2023/12/10 08:31:57;;;;;;;41.35;24.15;;;;;;;;;;5589648;31;35064;-71
2023/12/10 08:35:00;;;;;;;39.45;24.25;;;;;;;;;;5589276;31;34456;-72
2023/12/10 08:38:03;;;;;;;44.95;25.48;;;;;;;;;;5589801;31;34316;-73
2023/12/10 08:41:06;;;;;;;39.80;24.12;;;;;;;;;;5589566;31;34525;-73
2023/12/10 08:44:10;;;;;;;37.72;23.85;;;;;;;;;;5589458;31;35020;-73
2023/12/10 08:47:13;;;;;;;37.50;22.80;;;;;;;;;;5588888;31;34473;-74
2023/12/10 08:50:15;;;;;;;37.63;22.62;;;;;;;;;;5588735;31;34150;-74
2023/12/10 08:53:18;;;;;;;35.75;22.50;;;;;;;;;;5588885;31;34238;-75
2023/12/10 08:56:21;;;;;;;38.97;22.73;;;;;;;;;;5588917;31;35148;-74
2023/12/10 08:59:24;;;;;;;35.03;22.52;;;;;;;;;;5588643;31;34689;-75
2023/12/10 09:02:26;;;;;;;35.33;22.50;;;;;;;;;;5589111;31;35058;-76
2023/12/10 09:05:31;;;;;;;35.15;22.17;;;;;;;;;;5589262;31;35129;-76
2023/12/10 09:08:34;;;;;;;37.90;23.52;;;;;;;;;;5589301;31;35044;-76
2023/12/10 09:11:37;;;;;;;32.25;21.48;;;;;;;;;;5589045;31;34276;-77
2023/12/10 09:14:40;;;;;;;34.72;22.02;;;;;;;;;;5588276;31;34415;-77
2023/12/10 09:17:42;;;;;;;35.47;23.02;;;;;;;;;;5589148;31;34380;-77
2023/12/10 09:20:46;;;;;;;35.65;23.02;;;;;;;;;;5588997;31;34400;-77
2023/12/10 09:23:50;;;;;;;33.65;22.10;;;;;;;;;;5589017;31;35078;-77
2023/12/10 09:26:56;;;;;;;38.08;27.77;;;;;;;;;;5588807;31;34315;-76
2023/12/10 09:29:58;;;;;;;32.08;22.23;;;;;;;;;;5588567;31;34786;-76
2023/12/10 09:33:02;;;;;;;33.05;22.27;;;;;;;;;;5588147;31;34186;-76
2023/12/10 09:36:05;;;;;;;35.17;22.62;;;;;;;;;;5588713;31;34459;-76
2023/12/10 09:39:08;;;;;;;38.03;23.48;;;;;;;;;;5588885;31;34306;-75
2023/12/10 09:42:12;;;;;;;42.13;23.65;;;;;;;;;;5588811;31;34298;-75
2023/12/10 09:45:16;;;;;;;38.35;24.65;;;;;;;;;;5588473;31;34525;-75
2023/12/10 09:48:21;;;;;;;38.00;24.48;;;;;;;;;;5588716;31;34633;-75
2023/12/10 09:51:23;;;;;;;40.83;25.27;;;;;;;;;;5588674;31;34931;-75
2023/12/10 09:54:28;;;;;;;39.42;25.30;;;;;;;;;;5588813;31;35125;-75
2023/12/10 09:57:32;;;;;;;34.75;23.15;;;;;;;;;;5588708;31;34485;-75
2023/12/10 10:00:35;;;;;;;37.78;23.33;;;;;;;;;;5588616;31;34486;-75
2023/12/10 10:03:40;;;;;;;33.08;23.27;;;;;;;;;;5588696;31;34365;-75
2023/12/10 10:06:42;;;;;;;34.13;22.67;;;;;;;;;;5588717;31;34292;-75
2023/12/10 10:09:45;;;;;;;33.53;21.65;;;;;;;;;;5588565;31;34605;-75
2023/12/10 10:12:48;;;;;;;30.58;20.80;;;;;;;;;;5588634;31;35163;-75
2023/12/10 10:15:52;;;;;;;29.73;20.73;;;;;;;;;;5588341;31;34317;-73
2023/12/10 10:18:55;;;;;;;28.23;19.80;;;;;;;;;;5588713;31;35035;-73
2023/12/10 10:21:58;;;;;;;27.20;19.80;;;;;;;;;;5588520;31;35142;-74
2023/12/10 10:25:01;;;;;;;26.42;18.77;;;;;;;;;;5588247;31;35111;-75
2023/12/10 10:28:06;;;;;;;29.33;19.42;;;;;;;;;;5587773;31;35196;-73
2023/12/10 10:31:10;;;;;;;23.70;18.60;;;;;;;;;;5586967;31;34937;-72
2023/12/10 10:34:14;;;;;;;26.62;19.02;;;;;;;;;;5588336;31;34452;-72
2023/12/10 10:37:17;;;;;;;25.48;18.75;;;;;;;;;;5588333;31;35066;-72
2023/12/10 10:40:20;;;;;;;25.98;18.95;;;;;;;;;;5588197;31;34452;-71
2023/12/10 10:43:23;;;;;;;23.30;17.83;;;;;;;;;;5588330;31;34371;-72
2023/12/10 10:46:26;;;;;;;25.12;19.70;;;;;;;;;;5588481;31;34555;-72
2023/12/10 10:49:29;;;;;;;22.50;17.73;;;;;;;;;;5588214;31;34245;-72
2023/12/10 10:52:34;;;;;;;19.42;15.75;;;;;;;;;;5588300;31;34122;-72
2023/12/10 10:55:40;;;;;;;19.35;15.95;;;;;;;;;;5588133;31;34428;-72
2023/12/10 10:58:45;;;;;;;18.80;15.43;;;;;;;;;;5587308;31;35095;-72
2023/12/10 11:01:47;;;;;;;20.35;16.17;;;;;;;;;;5587681;31;34332;-73
2023/12/10 11:04:57;;;;;;;20.52;15.63;;;;;;;;;;5587827;31;34054;-72
2023/12/10 11:08:14;;;;;;;24.20;18.73;;;;;;;;;;5587990;31;34396;-72
2023/12/10 11:11:19;;;;;;;23.05;18.70;;;;;;;;;;5587941;31;35004;-72
2023/12/10 11:14:23;;;;;;;25.42;19.15;;;;;;;;;;5588359;31;35070;-72
2023/12/10 11:17:27;;;;;;;26.35;19.50;;;;;;;;;;5588091;31;35019;-72
2023/12/10 11:20:36;;;;;;;27.73;19.90;;;;;;;;;;5587221;31;35050;-72
2023/12/10 11:23:55;;;;;;;27.23;19.75;;;;;;;;;;5587883;31;34559;-72
2023/12/10 11:26:59;;;;;;;23.65;18.60;;;;;;;;;;5588210;31;35000;-72
2023/12/10 11:30:13;;;;;;;21.95;17.90;;;;;;;;;;5586975;31;35098;-72
2023/12/10 11:33:17;;;;;;;23.70;18.65;;;;;;;;;;5586293;31;34646;-71
2023/12/10 11:36:20;;;;;;;27.05;19.52;;;;;;;;;;5589933;31;34947;-71
2023/12/10 11:39:39;;;;;;;25.08;19.08;;;;;;;;;;5593709;31;34555;-71
2023/12/10 11:42:42;;;;;;;24.95;19.27;;;;;;;;;;5593833;31;35154;-71
2023/12/10 11:45:45;;;;;;;23.60;17.48;;;;;;;;;;5594017;31;35091;-73
2023/12/10 11:48:49;;;;;;;24.73;19.12;;;;;;;;;;5594147;31;34355;-71
2023/12/10 11:51:52;;;;;;;27.08;19.37;;;;;;;;;;5594037;31;34518;-71
2023/12/10 11:54:59;;;;;;;26.02;19.77;;;;;;;;;;5594086;31;34415;-72
2023/12/10 11:58:02;;;;;;;27.13;20.45;;;;;;;;;;5593183;31;33660;-71
2023/12/10 12:01:05;;;;;;;29.30;20.90;;;;;;;;;;5593682;31;34291;-70
2023/12/10 12:04:08;;;;;;;24.45;19.33;;;;;;;;;;5593524;31;34516;-73
2023/12/10 12:07:28;;;;;;;23.20;18.83;;;;;;;;;;5593581;31;34282;-71
2023/12/10 12:10:37;;;;;;;24.30;18.67;;;;;;;;;;5592845;31;35077;-71
2023/12/10 12:13:45;;;;;;;25.05;19.50;;;;;;;;;;5589040;31;151491;-71
2023/12/10 12:16:51;;;;;;;24.30;19.73;;;;;;;;;;5593641;31;34009;-71
2023/12/10 12:19:59;;;;;;;27.13;21.52;;;;;;;;;;5593610;31;34704;-70
2023/12/10 12:23:04;;;;;;;;;;;;;;;;;;5593611;31;34908;-71
2023/12/10 12:26:08;;;;;;;29.05;21.48;;;;;;;;;;5593492;31;35285;-71
2023/12/10 12:29:11;;;;;;;32.38;23.58;;;;;;;;;;5592974;31;34599;-71
2023/12/10 12:32:13;;;;;;;28.17;22.33;;;;;;;;;;5593288;31;34362;-71
2023/12/10 12:35:33;;;;;;;29.48;22.45;;;;;;;;;;5592138;31;35222;-71
2023/12/10 12:38:36;;;;;;;33.17;24.80;;;;;;;;;;5593163;31;34331;-70
2023/12/10 12:41:40;;;;;;;30.80;23.70;;;;;;;;;;5592909;31;35114;-70
2023/12/10 12:44:46;;;;;;;30.70;23.92;;;;;;;;;;5592066;31;35078;-70
2023/12/10 12:47:49;;;;;;;30.08;22.75;;;;;;;;;;5590172;31;34526;-70
2023/12/10 12:50:52;;;;;;;26.15;20.33;;;;;;;;;;5589263;31;35088;-70
2023/12/10 12:53:55;;;;;;;29.87;22.30;;;;;;;;;;5589405;31;35061;-70
2023/12/10 12:57:16;;;;;;;30.88;23.70;;;;;;;;;;5589114;31;35091;-71
2023/12/10 13:00:19;;;;;;;31.52;24.05;;;;;;;;;;5589247;31;35086;-70
2023/12/10 13:03:25;;;;;;;31.92;25.00;;;;;;;;;;5589167;31;35113;-71
2023/12/10 13:06:29;;;;;;;33.47;25.40;;;;;;;;;;5588834;31;34541;-70
2023/12/10 13:09:35;;;;;;;34.75;26.08;;;;;;;;;;5588746;31;34406;-71
2023/12/10 13:12:39;;;;;;;29.27;22.65;;;;;;;;;;5588944;31;34446;-70
2023/12/10 13:15:42;;;;;;;31.45;23.35;;;;;;;;;;5588772;31;34396;-71
2023/12/10 13:18:47;;;;;;;30.60;23.15;;;;;;;;;;5589125;31;34674;-71
2023/12/10 13:21:51;;;;;;;28.77;22.35;;;;;;;;;;5588995;31;34526;-71
2023/12/10 13:24:55;;;;;;;27.87;21.27;;;;;;;;;;5589010;31;35137;-70
2023/12/10 13:28:01;;;;;;;25.70;20.60;;;;;;;;;;5588856;31;34641;-71
2023/12/10 13:31:03;;;;;;;23.42;19.50;;;;;;;;;;5588774;31;35203;-70
2023/12/10 13:34:07;;;;;;;25.98;20.83;;;;;;;;;;5588804;31;34588;-71
2023/12/10 13:37:12;;;;;;;25.65;20.30;;;;;;;;;;5588694;31;35313;-70
2023/12/10 13:40:16;;;;;;;26.10;20.58;;;;;;;;;;5588226;31;34478;-71
2023/12/10 13:43:20;;;;;;;25.00;20.75;;;;;;;;;;5588480;31;34489;-70
2023/12/10 13:46:22;;;;;;;25.08;21.08;;;;;;;;;;5588614;31;34316;-70
2023/12/10 13:49:28;;;;;;;24.83;19.90;;;;;;;;;;5588621;31;34279;-70
2023/12/10 13:52:31;;;;;;;26.42;19.62;;;;;;;;;;5588254;31;34360;-70
2023/12/10 13:55:34;;;;;;;25.33;20.37;;;;;;;;;;5588520;31;34532;-70
2023/12/10 13:58:37;;;;;;;22.55;18.80;;;;;;;;;;5588146;31;34305;-71
2023/12/10 14:01:41;;;;;;;26.60;20.77;;;;;;;;;;5587625;31;35022;-72
2023/12/10 14:04:44;;;;;;;29.80;22.60;;;;;;;;;;5588512;31;35122;-70
2023/12/10 14:07:48;;;;;;;31.33;22.02;;;;;;;;;;5588437;31;35280;-71
2023/12/10 14:10:53;;;;;;;30.77;23.38;;;;;;;;;;5587716;31;34538;-71
2023/12/10 14:13:56;;;;;;;26.12;21.10;;;;;;;;;;5588515;31;34191;-71
2023/12/10 14:16:59;;;;;;;29.58;22.15;;;;;;;;;;5587891;31;34384;-71
2023/12/10 14:20:07;;;;;;;27.55;22.25;;;;;;;;;;5588601;31;34557;-72
2023/12/10 14:23:09;;;;;;;26.73;21.67;;;;;;;;;;5588416;31;34530;-70
2023/12/10 14:26:13;;;;;;;26.27;21.17;;;;;;;;;;5588410;31;34438;-71
2023/12/10 14:29:16;;;;;;;22.60;18.85;;;;;;;;;;5588282;31;34237;-70
2023/12/10 14:32:19;;;;;;;21.37;18.12;;;;;;;;;;5588086;31;34258;-70
2023/12/10 14:35:22;;;;;;;23.42;19.27;;;;;;;;;;5588442;31;34467;-70
2023/12/10 14:38:24;;;;;;;24.40;19.58;;;;;;;;;;5587649;31;34506;-70
2023/12/10 14:41:28;;;;;;;24.83;19.48;;;;;;;;;;5587982;31;34575;-70
2023/12/10 14:44:30;;;;;;;24.85;19.67;;;;;;;;;;5588092;31;34581;-70
2023/12/10 14:47:33;;;;;;;25.70;20.25;;;;;;;;;;5588266;31;34525;-71
2023/12/10 14:50:37;;;;;;;25.80;20.83;;;;;;;;;;5588175;31;34988;-70
2023/12/10 14:53:41;;;;;;;28.65;21.98;;;;;;;;;;5588080;31;35099;-70
2023/12/10 14:56:47;;;;;;;27.00;21.90;;;;;;;;;;5588071;31;34356;-70
2023/12/10 14:59:49;;;;;;;28.17;22.23;;;;;;;;;;5587358;31;35043;-71
2023/12/10 15:02:53;;;;;;;27.77;22.00;;;;;;;;;;5587982;31;35154;-70
2023/12/10 15:06:04;;;;;;;31.77;24.80;;;;;;;;;;5587265;31;34694;-70
2023/12/10 15:09:07;;;;;;;28.75;22.90;;;;;;;;;;5587976;31;34614;-70
2023/12/10 15:12:12;;;;;;;25.65;20.90;;;;;;;;;;5587056;31;35024;-71
2023/12/10 15:15:14;;;;;;;25.88;21.10;;;;;;;;;;5588111;31;34995;-70
2023/12/10 15:18:17;;;;;;;27.30;22.10;;;;;;;;;;5588285;31;33577;-71
2023/12/10 15:21:25;;;;;;;28.20;22.23;;;;;;;;;;5588040;31;35072;-70
2023/12/10 15:24:30;;;;;;;28.55;22.55;;;;;;;;;;5587822;31;34410;-70
2023/12/10 15:27:33;;;;;;;27.87;22.45;;;;;;;;;;5587640;31;34329;-69
2023/12/10 15:30:36;;;;;;;29.25;23.35;;;;;;;;;;5587499;31;34362;-69
2023/12/10 15:33:40;;;;;;;29.70;23.58;;;;;;;;;;5587167;31;35151;-69
2023/12/10 15:36:46;;;;;;;30.42;24.15;;;;;;;;;;5587226;31;34364;-70
2023/12/10 15:39:48;;;;;;;30.73;24.25;;;;;;;;;;5587212;31;35282;-69
2023/12/10 15:42:51;;;;;;;30.70;24.40;;;;;;;;;;5587584;31;34336;-71
2023/12/10 15:45:55;;;;;;;30.45;24.55;;;;;;;;;;5587248;31;35073;-70
2023/12/10 15:49:00;;;;;;;31.37;24.80;;;;;;;;;;5587431;31;34491;-70
2023/12/10 15:52:03;;;;;;;32.92;24.87;;;;;;;;;;5586988;31;34251;-69
2023/12/10 15:55:08;;;;;;;31.37;24.55;;;;;;;;;;5586370;31;34536;-69
2023/12/10 15:58:13;;;;;;;34.35;26.35;;;;;;;;;;5586887;31;34274;-70
2023/12/10 16:01:18;;;;;;;36.08;27.23;;;;;;;;;;5586916;31;35169;-70
2023/12/10 16:04:25;;;;;;;37.05;27.08;;;;;;;;;;5587324;31;35203;-68
2023/12/10 16:07:29;;;;;;;34.65;26.23;;;;;;;;;;5586778;31;34570;-70
2023/12/10 16:10:54;;;;;;;34.30;26.92;;;;;;;;;;5586524;31;34370;-69
2023/12/10 16:14:00;;;;;;;34.10;25.80;;;;;;;;;;5586256;31;35452;-69
2023/12/10 16:17:05;;;;;;;36.17;27.35;;;;;;;;;;5585861;31;34518;-70
2023/12/10 16:20:11;;;;;;;35.72;27.20;;;;;;;;;;5585935;31;33804;-69
2023/12/10 16:23:16;;;;;;;36.53;26.83;;;;;;;;;;5588579;31;34470;-70
2023/12/10 16:26:23;;;;;;;33.85;26.95;;;;;;;;;;5589488;31;34685;-70
2023/12/10 16:29:26;;;;;;;32.00;25.10;;;;;;;;;;5589521;31;34912;-70
2023/12/10 16:32:29;;;;;;;33.80;25.52;;;;;;;;;;5589315;31;34444;-70
2023/12/10 16:35:32;;;;;;;34.58;27.05;;;;;;;;;;5588301;31;33186;-70
2023/12/10 16:38:35;;;;;;;34.13;26.92;;;;;;;;;;5589669;31;34223;-70
2023/12/10 16:41:39;;;;;;;33.60;25.80;;;;;;;;;;5589102;31;34471;-70
2023/12/10 16:44:48;;;;;;;34.97;26.40;;;;;;;;;;5589257;31;35056;-69
2023/12/10 16:47:52;;;;;;;36.28;28.23;;;;;;;;;;5589228;31;34457;-69
2023/12/10 16:50:57;;;;;;;39.35;29.77;;;;;;;;;;5574994;31;34510;-69
2023/12/10 16:54:06;;;;;;;38.17;29.65;;;;;;;;;;5588292;31;34566;-69
2023/12/10 16:57:10;;;;;;;37.45;29.60;;;;;;;;;;5575341;31;34419;-69
2023/12/10 17:00:15;;;;;;;37.17;27.85;;;;;;;;;;5589124;31;34405;-69
2023/12/10 17:03:20;;;;;;;35.75;28.98;;;;;;;;;;5588406;31;34427;-70
2023/12/10 17:06:25;;;;;;;36.88;28.62;;;;;;;;;;5588874;31;34233;-69
2023/12/10 17:09:30;;;;;;;41.80;30.92;;;;;;;;;;5589003;31;35017;-69
2023/12/10 17:12:39;;;;;;;40.30;30.45;;;;;;;;;;5588745;31;34882;-69
2023/12/10 17:15:42;;;;;;;41.55;31.10;;;;;;;;;;5588801;31;34503;-70
2023/12/10 17:18:45;;;;;;;40.22;30.60;;;;;;;;;;5589473;31;34035;-69
2023/12/10 17:21:48;;;;;;;40.35;30.75;;;;;;;;;;5589028;31;34446;-70
2023/12/10 17:24:50;;;;;;;41.30;30.70;;;;;;;;;;5588877;31;34339;-71
2023/12/10 17:27:54;;;;;;;39.88;30.60;;;;;;;;;;5589227;31;34290;-70
2023/12/10 17:30:57;;;;;;;39.95;30.35;;;;;;;;;;5589005;31;34647;-70
2023/12/10 17:33:59;;;;;;;40.67;31.40;;;;;;;;;;5588214;31;34243;-70
2023/12/10 17:37:09;;;;;;;39.88;30.60;;;;;;;;;;5588791;31;35047;-71
2023/12/10 17:40:13;;;;;;;41.90;30.92;;;;;;;;;;5588848;31;34596;-70
2023/12/10 17:43:21;;;;;;;40.97;31.15;;;;;;;;;;5587917;31;35008;-68
2023/12/10 17:46:25;;;;;;;40.53;30.92;;;;;;;;;;5587840;31;34437;-70
2023/12/10 17:49:27;;;;;;;40.67;30.12;;;;;;;;;;5588508;31;34286;-70